Time;durP1;ratioP1;P1;durP2;ratioP2;P2;SDS_P1;SDS_P2;PMS_P1;PMS_P2;Temp;Humidity;BMP_temperature;BMP_pressure;BME280_temperature;BME280_humidity;BME280_pressure;Samples;Min_cycle;Max_cycle;Signal;HPM_P1;HPM_P2
2022/07/20 00:01:18;;;;;;;;;;;;;;;25.36;39.81;95820.31;10521555;28;1887;-69
2022/07/20 00:06:18;;;;;;;;;;;;;;;25.36;39.82;95825.63;10521111;28;1814;-69
2022/07/20 00:11:22;;;;;;;;;;;;;;;25.37;39.63;95827.22;10519716;28;1965;-70
2022/07/20 00:16:24;;;;;;;;;;;;;;;25.35;39.77;95822.19;10523100;28;1829;-70
2022/07/20 00:21:24;;;;;;;;;;;;;;;25.37;39.80;95821.91;10502377;28;1828;-69
2022/07/20 00:26:24;;;;;;;;;;;;;;;25.35;39.86;95819.53;10478956;28;2182;-69
2022/07/20 00:31:25;;;;;;;;;;;;;;;25.38;39.78;95812.84;10501536;28;1906;-69
2022/07/20 00:36:25;;;;;;;;;;;;;;;25.37;39.84;95812.06;10516771;28;1875;-69
2022/07/20 00:41:25;;;;;;;;;;;;;;;25.36;39.74;95809.72;10488273;28;1894;-69
2022/07/20 00:46:26;;;;;;;;;;;;;;;25.37;39.80;95803.34;10521125;28;2313;-69
2022/07/20 00:51:26;;;;;;;;;;;;;;;25.36;39.73;95794.59;10520755;28;1930;-69
2022/07/20 00:56:27;;;;;;;;;;;;;;;25.37;39.68;95796.13;10506802;28;2245;-71
2022/07/20 01:01:27;;;;;;;;;;;;;;;25.37;39.90;95798.78;10522400;28;1877;-69
2022/07/20 01:06:28;;;;;;;;;;;;;;;25.37;39.86;95795.38;10504253;28;2035;-70
2022/07/20 01:11:29;;;;;;;;;;;;;;;25.36;39.68;95799.88;10517496;28;1933;-69
2022/07/20 01:16:43;;;;;;;;;;;;;;;25.38;39.80;95796.94;10520253;28;1975;-67
2022/07/20 01:21:55;;;;;;;;;;;;;;;25.36;39.80;95786.63;10516227;28;2016;-67
2022/07/20 01:27:08;;;;;;;;;;;;;;;25.37;39.86;95784.75;10517208;28;2049;-68
2022/07/20 01:32:22;;;;;;;;;;;;;;;25.37;39.75;95785.53;10519040;28;1983;-69
2022/07/20 01:37:42;;;;;;;;;;;;;;;25.37;39.75;95785.53;10517227;28;2003;-68
2022/07/20 01:42:52;;;;;;;;;;;;;;;25.38;39.85;95787.09;10519567;28;2027;-68
2022/07/20 01:47:53;;;;;;;;;;;;;;;25.37;39.86;95788.19;10523851;28;1992;-69
2022/07/20 01:52:53;;;;;;;;;;;;;;;25.37;39.85;95782.88;10517122;28;2110;-68
2022/07/20 01:57:54;;;;;;;;;;;;;;;25.37;39.77;95780.22;10522153;28;1865;-68
2022/07/20 02:02:55;;;;;;;;;;;;;;;25.38;39.85;95783.66;10510539;28;1932;-68
2022/07/20 02:07:56;;;;;;;;;;;;;;;25.38;39.86;95784.44;10521438;28;1972;-68
2022/07/20 02:12:57;;;;;;;;;;;;;;;25.38;39.65;95787.09;10514943;28;1992;-68
2022/07/20 02:17:58;;;;;;;;;;;;;;;25.38;39.76;95781.00;10525118;28;2139;-70
2022/07/20 02:22:58;;;;;;;;;;;;;;;25.38;39.77;95781.78;10527872;28;1994;-69
2022/07/20 02:27:58;;;;;;;;;;;;;;;25.39;39.80;95787.91;10511173;28;1971;-69
2022/07/20 02:33:01;;;;;;;;;;;;;;;25.38;39.90;95779.16;10503455;28;1938;-69
2022/07/20 02:38:02;;;;;;;;;;;;;;;25.38;39.79;95784.44;10525261;28;1979;-69
2022/07/20 02:43:02;;;;;;;;;;;;;;;25.39;39.89;95782.59;10526502;28;1902;-69
2022/07/20 02:48:03;;;;;;;;;;;;;;;25.39;39.76;95788.66;10526194;28;1944;-69
2022/07/20 02:53:04;;;;;;;;;;;;;;;25.38;39.72;95776.50;10524679;28;2094;-70
2022/07/20 02:58:04;;;;;;;;;;;;;;;25.39;39.86;95783.34;10509377;28;1974;-69
2022/07/20 03:03:05;;;;;;;;;;;;;;;25.40;39.81;95784.94;10520760;28;1976;-69
2022/07/20 03:08:07;;;;;;;;;;;;;;;25.40;39.77;95790.25;10509292;28;2059;-69
2022/07/20 03:13:07;;;;;;;;;;;;;;;25.40;39.81;95790.25;10524959;28;1999;-69
2022/07/20 03:18:08;;;;;;;;;;;;;;;25.40;39.84;95792.09;10525474;28;1940;-69
2022/07/20 03:23:08;;;;;;;;;;;;;;;25.40;39.79;95787.59;10520492;28;1936;-69
2022/07/20 03:28:09;;;;;;;;;;;;;;;25.40;39.78;95800.06;10510085;28;1866;-69
2022/07/20 03:33:09;;;;;;;;;;;;;;;25.41;39.81;95797.13;10524593;28;1897;-69
2022/07/20 03:38:10;;;;;;;;;;;;;;;25.40;39.71;95800.06;10521798;28;1982;-69
2022/07/20 03:43:11;;;;;;;;;;;;;;;25.41;39.90;95799.78;10524243;28;1998;-69
2022/07/20 03:48:11;;;;;;;;;;;;;;;25.40;39.85;95800.84;10525783;28;1968;-69
2022/07/20 03:53:11;;;;;;;;;;;;;;;25.40;39.95;95798.19;10502762;28;1988;-69
2022/07/20 03:58:11;;;;;;;;;;;;;;;25.41;39.98;95796.38;10505030;28;2034;-69
2022/07/20 04:03:12;;;;;;;;;;;;;;;25.41;39.77;95788.41;10523703;28;1949;-69
2022/07/20 04:08:13;;;;;;;;;;;;;;;25.41;39.89;95799.78;10524099;28;1980;-69
2022/07/20 04:13:13;;;;;;;;;;;;;;;25.42;40.04;95798.72;10524621;28;1958;-69
2022/07/20 04:18:17;;;;;;;;;;;;;;;25.42;40.01;95803.22;10522688;28;2190;-69
2022/07/20 04:23:17;;;;;;;;;;;;;;;25.42;39.94;95809.31;10522755;28;2032;-68
2022/07/20 04:28:18;;;;;;;;;;;;;;;25.42;39.95;95806.66;10519581;28;2112;-68
2022/07/20 04:33:18;;;;;;;;;;;;;;;25.42;39.91;95798.72;10523856;28;2260;-69
2022/07/20 04:38:19;;;;;;;;;;;;;;;25.42;39.85;95811.97;10529159;28;1985;-69
2022/07/20 04:43:19;;;;;;;;;;;;;;;25.43;39.82;95815.44;10500487;28;2280;-69
2022/07/20 04:48:20;;;;;;;;;;;;;;;25.42;39.68;95811.97;10523519;28;1929;-69
2022/07/20 04:53:20;;;;;;;;;;;;;;;25.44;39.80;95822.28;10523275;28;1902;-68
2022/07/20 04:58:21;;;;;;;;;;;;;;;25.44;39.94;95815.13;10519937;28;1995;-69
2022/07/20 05:03:21;;;;;;;;;;;;;;;25.44;39.63;95824.94;10512950;28;2065;-69
2022/07/20 05:08:21;;;;;;;;;;;;;;;25.44;39.60;95817.75;10513583;28;1989;-69
2022/07/20 05:13:22;;;;;;;;;;;;;;;25.45;39.66;95813.25;10516953;28;2143;-69
2022/07/20 05:18:22;;;;;;;;;;;;;;;25.45;39.62;95818.56;10517231;28;1952;-69
2022/07/20 05:23:23;;;;;;;;;;;;;;;25.45;39.76;95821.22;10511867;28;1972;-69
2022/07/20 05:28:24;;;;;;;;;;;;;;;25.45;39.59;95819.31;10502650;28;1956;-68
2022/07/20 05:33:24;;;;;;;;;;;;;;;25.46;39.55;95817.47;10512405;28;1989;-69
2022/07/20 05:38:24;;;;;;;;;;;;;;;25.46;39.86;95820.09;10507796;28;1995;-69
2022/07/20 05:43:25;;;;;;;;;;;;;;;25.46;39.67;95818.25;10523042;28;1976;-69
2022/07/20 05:48:26;;;;;;;;;;;;;;;25.46;39.74;95818.25;10507065;28;1979;-70
2022/07/20 05:53:27;;;;;;;;;;;;;;;25.45;39.89;95821.97;10508497;28;1965;-69
2022/07/20 05:58:28;;;;;;;;;;;;;;;25.47;39.63;95829.66;10522151;28;2009;-69
2022/07/20 06:03:28;;;;;;;;;;;;;;;25.47;39.93;95835.72;10519525;28;2015;-69
2022/07/20 06:08:28;;;;;;;;;;;;;;;25.48;39.72;95833.84;10521038;28;1966;-69
2022/07/20 06:13:29;;;;;;;;;;;;;;;25.47;39.54;95830.41;10517608;28;2001;-70
2022/07/20 06:18:29;;;;;;;;;;;;;;;25.47;39.58;95835.72;10524468;28;1915;-68
2022/07/20 06:23:29;;;;;;;;;;;;;;;25.48;39.51;95832.00;10520579;28;1928;-70
2022/07/20 06:28:30;;;;;;;;;;;;;;;25.49;39.48;95828.25;10508213;28;2010;-69
2022/07/20 06:33:30;;;;;;;;;;;;;;;25.49;39.63;95828.25;10523792;28;1986;-69
2022/07/20 06:38:30;;;;;;;;;;;;;;;25.48;39.72;95829.34;10528640;28;2009;-69
2022/07/20 06:43:31;;;;;;;;;;;;;;;25.49;39.67;95840.75;10525006;28;1931;-70
2022/07/20 06:48:33;;;;;;;;;;;;;;;25.49;39.91;95844.16;10520945;28;1945;-69
2022/07/20 06:53:34;;;;;;;;;;;;;;;25.50;39.79;95848.41;10511157;28;1925;-70
2022/07/20 06:58:36;;;;;;;;;;;;;;;25.50;39.87;95839.66;10521929;28;1915;-69
2022/07/20 07:03:36;;;;;;;;;;;;;;;25.50;39.84;95851.06;10501588;28;1859;-70
2022/07/20 07:08:36;;;;;;;;;;;;;;;25.52;39.78;95848.09;10520436;28;1792;-69
2022/07/20 07:13:37;;;;;;;;;;;;;;;25.51;39.71;95849.19;10521881;28;1901;-69
2022/07/20 07:18:38;;;;;;;;;;;;;;;25.52;39.74;95850.75;10539128;28;1819;-69
2022/07/20 07:23:38;;;;;;;;;;;;;;;25.52;39.67;95846.22;10514917;28;1845;-69
2022/07/20 07:28:39;;;;;;;;;;;;;;;25.52;39.86;95848.09;10507927;28;1819;-69
2022/07/20 07:33:39;;;;;;;;;;;;;;;25.52;39.75;95851.53;10485369;28;1975;-69
2022/07/20 07:38:39;;;;;;;;;;;;;;;25.53;39.97;95842.47;10519418;28;1847;-69
2022/07/20 07:43:39;;;;;;;;;;;;;;;25.53;39.99;95845.13;10500926;28;1792;-69
2022/07/20 07:48:40;;;;;;;;;;;;;;;25.54;39.82;95835.31;10523650;28;2280;-69
2022/07/20 07:53:40;;;;;;;;;;;;;;;25.55;39.90;95844.84;10522592;28;1898;-68
2022/07/20 07:58:40;;;;;;;;;;;;;;;25.55;39.94;95845.63;10506797;28;1886;-69
2022/07/20 08:03:41;;;;;;;;;;;;;;;25.55;39.94;95840.34;10521002;28;1846;-69
2022/07/20 08:08:41;;;;;;;;;;;;;;;25.57;40.10;95848.78;10510736;28;1788;-68
2022/07/20 08:13:42;;;;;;;;;;;;;;;25.58;40.03;95839.72;10526399;28;1909;-69
2022/07/20 08:18:42;;;;;;;;;;;;;;;25.58;40.13;95845.03;10519329;28;1834;-70
2022/07/20 08:23:42;;;;;;;;;;;;;;;25.58;40.17;95838.91;10516576;28;1761;-69
2022/07/20 08:28:43;;;;;;;;;;;;;;;25.60;40.04;95847.38;10523093;28;1824;-68
2022/07/20 08:33:43;;;;;;;;;;;;;;;25.59;40.27;95840.50;10519704;28;1966;-68
2022/07/20 08:38:43;;;;;;;;;;;;;;;25.60;40.13;95834.88;10516229;28;2275;-69
2022/07/20 08:43:44;;;;;;;;;;;;;;;25.61;40.18;95833.81;10517768;28;1795;-67
2022/07/20 08:48:44;;;;;;;;;;;;;;;25.60;40.34;95824.25;10521222;28;1751;-69
2022/07/20 08:53:44;;;;;;;;;;;;;;;25.62;40.22;95829.25;10500464;28;2197;-68
2022/07/20 08:58:45;;;;;;;;;;;;;;;25.62;40.31;95822.09;10533517;28;1851;-68
2022/07/20 09:04:06;;;;;;;;;;;;;;;25.63;40.34;95826.31;10521778;28;1757;-67
2022/07/20 09:09:06;;;;;;;;;;;;;;;25.63;40.08;95825.53;10517848;28;1832;-69
2022/07/20 09:14:06;;;;;;;;;;;;;;;25.63;40.08;95826.31;10519362;28;1951;-68
2022/07/20 09:19:07;;;;;;;;;;;;;;;25.63;40.33;95822.88;10521429;28;1863;-68
2022/07/20 09:24:08;;;;;;;;;;;;;;;25.64;40.18;95830.53;10515487;28;1822;-69
2022/07/20 09:29:08;;;;;;;;;;;;;;;25.63;40.07;95834.28;10522545;28;1859;-68
2022/07/20 09:34:15;;;;;;;;;;;;;;;25.63;40.32;95828.97;10521453;28;2083;-68
2022/07/20 09:39:16;;;;;;;;;;;;;;;25.64;40.17;95833.19;10503918;28;1816;-67
2022/07/20 09:44:20;;;;;;;;;;;;;;;25.66;40.03;95833.66;10488357;28;1811;-67
2022/07/20 09:49:21;;;;;;;;;;;;;;;25.66;40.14;95832.88;10521386;28;1850;-68
2022/07/20 09:54:21;;;;;;;;;;;;;;;25.67;40.12;95832.59;10517253;28;1914;-68
2022/07/20 09:59:22;;;;;;;;;;;;;;;25.67;40.12;95827.28;10518775;28;1783;-69
2022/07/20 10:04:22;;;;;;;;;;;;;;;25.68;40.42;95831.50;10497367;28;1768;-69
2022/07/20 10:09:23;;;;;;;;;;;;;;;25.69;40.32;95824.31;10522916;28;1760;-69
2022/07/20 10:14:23;;;;;;;;;;;;;;;25.70;40.28;95831.19;10500219;28;2376;-69
2022/07/20 10:19:46;;;;;;;;;;;;;;;25.69;40.42;95827.75;10519009;28;1903;-68
2022/07/20 10:24:47;;;;;;;;;;;;;;;25.71;40.44;95832.75;10521538;28;1783;-68
2022/07/20 10:29:49;;;;;;;;;;;;;;;25.70;40.54;95826.66;10526513;28;1871;-67
2022/07/20 10:34:53;;;;;;;;;;;;;;;25.72;40.37;95832.44;10523796;28;1905;-70
2022/07/20 10:40:04;;;;;;;;;;;;;;;25.72;40.55;95823.69;10521681;28;1856;-70
2022/07/20 10:45:13;;;;;;;;;;;;;;;25.74;40.72;95827.63;10524378;28;1935;-69
2022/07/20 10:50:17;;;;;;;;;;;;;;;25.74;40.46;95821.50;10525879;28;1910;-69
2022/07/20 10:55:31;;;;;;;;;;;;;;;25.75;40.33;95820.44;10510042;28;1808;-67
2022/07/20 11:00:31;;;;;;;;;;;;;;;25.73;40.60;95823.41;10520704;28;2136;-69
2022/07/20 11:05:33;;;;;;;;;;;;;;;25.76;40.38;95816.72;10524931;28;1883;-67
2022/07/20 11:10:33;;;;;;;;;;;;;;;25.77;40.37;95811.09;10523011;28;1934;-69
2022/07/20 11:15:47;;;;;;;;;;;;;;;25.77;40.57;95800.47;10523530;28;1931;-69
2022/07/20 11:20:48;;;;;;;;;;;;;;;25.78;40.54;95798.59;10505823;28;1836;-69
2022/07/20 11:25:53;;;;;;;;;;;;;;;25.78;40.64;95796.72;10518757;28;1797;-68
2022/07/20 11:30:53;;;;;;;;;;;;;;;25.79;40.69;95792.19;10524290;28;1901;-68
2022/07/20 11:35:54;;;;;;;;;;;;;;;25.80;40.71;95793.78;10517109;28;1832;-68
2022/07/20 11:40:55;;;;;;;;;;;;;;;25.81;40.75;95790.81;10493628;28;1930;-69
2022/07/20 11:46:15;;;;;;;;;;;;;;;25.82;40.78;95780.97;10497301;28;1920;-69
2022/07/20 11:51:16;;;;;;;;;;;;;;;25.82;40.85;95787.03;10515894;28;1913;-69
2022/07/20 11:56:17;;;;;;;;;;;;;;;25.83;40.94;95778.00;10514925;28;1828;-69
2022/07/20 12:01:26;;;;;;;;;;;;;;;25.86;41.45;95773.16;10515176;28;1977;-69
2022/07/20 12:06:28;;;;;;;;;;;;;;;25.86;41.30;95776.63;10498444;28;1748;-69
2022/07/20 12:11:28;;;;;;;;;;;;;;;25.88;41.35;95771.00;10496917;28;1918;-68
2022/07/20 12:16:45;;;;;;;;;;;;;;;25.89;41.68;95764.56;10517219;28;1761;-68
2022/07/20 12:21:45;;;;;;;;;;;;;;;25.90;41.55;95763.50;10503983;28;1848;-68
2022/07/20 12:26:47;;;;;;;;;;;;;;;25.91;41.68;95768.50;10521957;28;1637;-69
2022/07/20 12:31:57;;;;;;;;;;;;;;;25.92;41.79;95754.13;10504115;28;1926;-68
2022/07/20 12:36:58;;;;;;;;;;;;;;;25.94;41.92;95748.50;10489254;28;1820;-67
2022/07/20 12:42:11;;;;;;;;;;;;;;;25.95;41.80;95747.41;10499888;28;1716;-68
2022/07/20 12:47:12;;;;;;;;;;;;;;;25.95;42.00;95732.25;10504652;28;1825;-68
2022/07/20 12:52:14;;;;;;;;;;;;;;;25.96;41.83;95730.41;10516198;28;1941;-68
2022/07/20 12:57:14;;;;;;;;;;;;;;;25.97;41.86;95729.28;10505649;28;1843;-68
2022/07/20 13:02:17;;;;;;;;;;;;;;;25.98;41.82;95725.56;10488003;28;1852;-67
2022/07/20 13:07:17;;;;;;;;;;;;;;;25.97;41.84;95716.78;10507824;28;1975;-69
2022/07/20 13:12:19;;;;;;;;;;;;;;;25.98;41.76;95714.94;10492389;28;1910;-68
2022/07/20 13:17:19;;;;;;;;;;;;;;;26.00;41.94;95712.75;10507158;28;1851;-68
2022/07/20 13:22:20;;;;;;;;;;;;;;;26.01;41.81;95714.31;10507257;28;2193;-68
2022/07/20 13:27:21;;;;;;;;;;;;;;;26.00;41.94;95708.22;10520342;28;2119;-67
2022/07/20 13:32:22;;;;;;;;;;;;;;;26.01;41.76;95691.19;10514735;28;1967;-68
2022/07/20 13:37:22;;;;;;;;;;;;;;;26.01;41.90;95698.38;10518809;28;1850;-67
2022/07/20 13:42:23;;;;;;;;;;;;;;;26.02;41.73;95698.06;10522531;28;1760;-68
2022/07/20 13:47:23;;;;;;;;;;;;;;;26.03;41.86;95701.53;10519891;28;1716;-68
2022/07/20 13:52:24;;;;;;;;;;;;;;;26.03;41.87;95693.56;10517404;28;2173;-67
2022/07/20 13:57:24;;;;;;;;;;;;;;;26.03;41.83;95696.22;10518677;28;1807;-68
2022/07/20 14:02:25;;;;;;;;;;;;;;;26.03;42.02;95698.88;10541363;28;1819;-67
2022/07/20 14:07:25;;;;;;;;;;;;;;;26.05;41.91;95694.03;10526930;28;1803;-67
2022/07/20 14:12:25;;;;;;;;;;;;;;;26.05;41.75;95686.06;10505363;28;1975;-67
2022/07/20 14:17:26;;;;;;;;;;;;;;;26.06;41.93;95682.28;10526874;28;1954;-68
2022/07/20 14:22:26;;;;;;;;;;;;;;;26.05;41.70;95673.53;10522222;28;1823;-68
2022/07/20 14:27:28;;;;;;;;;;;;;;;26.06;42.10;95666.34;10523502;28;1849;-68
2022/07/20 14:32:29;;;;;;;;;;;;;;;26.06;41.85;95663.69;10508129;28;1969;-69
2022/07/20 14:37:29;;;;;;;;;;;;;;;26.06;42.07;95653.88;10508035;28;1787;-68
2022/07/20 14:42:29;;;;;;;;;;;;;;;26.07;42.03;95650.13;10524557;28;1895;-67
2022/07/20 14:47:29;;;;;;;;;;;;;;;26.07;42.08;95652.78;10526024;28;1848;-68
2022/07/20 14:52:30;;;;;;;;;;;;;;;26.07;42.06;95638.72;10524153;28;1902;-68
2022/07/20 14:57:30;;;;;;;;;;;;;;;26.07;42.06;95644.81;10518138;28;1858;-67
2022/07/20 15:02:30;;;;;;;;;;;;;;;26.08;42.03;95634.97;10519057;28;1888;-68
2022/07/20 15:07:34;;;;;;;;;;;;;;;26.07;42.01;95634.19;10525549;28;1876;-68
2022/07/20 15:12:34;;;;;;;;;;;;;;;26.08;42.06;95625.13;10521570;28;1902;-68
2022/07/20 15:17:35;;;;;;;;;;;;;;;26.08;42.07;95634.97;10520050;28;1898;-68
2022/07/20 15:22:36;;;;;;;;;;;;;;;26.09;42.04;95641.88;10522778;28;1834;-68
2022/07/20 15:27:37;;;;;;;;;;;;;;;26.09;42.08;95625.94;10504837;28;1797;-67
2022/07/20 15:32:37;;;;;;;;;;;;;;;26.10;42.16;95627.47;10519799;28;2042;-68
2022/07/20 15:37:38;;;;;;;;;;;;;;;26.09;42.19;95625.94;10522268;28;1819;-68
2022/07/20 15:42:39;;;;;;;;;;;;;;;26.09;41.89;95625.94;10518644;28;1820;-68
2022/07/20 15:47:39;;;;;;;;;;;;;;;26.10;41.82;95638.09;10507439;28;1875;-68
2022/07/20 15:52:41;;;;;;;;;;;;;;;26.10;41.99;95635.44;10522410;28;1960;-69
2022/07/20 15:57:45;;;;;;;;;;;;;;;26.10;41.84;95638.09;10508188;28;1707;-68
2022/07/20 16:02:47;;;;;;;;;;;;;;;26.09;42.09;95637.31;10520615;28;1785;-68
2022/07/20 16:07:48;;;;;;;;;;;;;;;26.09;41.95;95642.63;10520751;28;1857;-68
2022/07/20 16:12:50;;;;;;;;;;;;;;;26.10;41.94;95646.88;10516799;28;1953;-68
2022/07/20 16:17:50;;;;;;;;;;;;;;;26.10;41.68;95641.56;10523855;28;1871;-69
2022/07/20 16:22:51;;;;;;;;;;;;;;;26.11;41.97;95639.69;10518598;28;1867;-69
2022/07/20 16:27:51;;;;;;;;;;;;;;;26.10;41.84;95628.28;10518907;28;1852;-68
2022/07/20 16:32:52;;;;;;;;;;;;;;;26.11;41.99;95619.19;10499397;28;1909;-67
2022/07/20 16:37:53;;;;;;;;;;;;;;;26.11;41.84;95616.53;10514332;28;1964;-69
2022/07/20 16:42:54;;;;;;;;;;;;;;;26.10;41.94;95607.00;10531555;28;1713;-69
2022/07/20 16:47:54;;;;;;;;;;;;;;;26.11;41.88;95611.22;10514849;28;1811;-67
2022/07/20 16:52:55;;;;;;;;;;;;;;;26.13;41.81;95610.94;10514961;28;1914;-67
2022/07/20 16:57:55;;;;;;;;;;;;;;;26.12;41.89;95604.03;10516881;28;1570;-68
2022/07/20 17:02:56;;;;;;;;;;;;;;;26.13;42.02;95605.63;10513589;28;1781;-68
2022/07/20 17:07:57;;;;;;;;;;;;;;;26.13;41.87;95601.06;10498032;28;1784;-67
2022/07/20 17:12:57;;;;;;;;;;;;;;;26.13;42.22;95595.75;10518562;28;1970;-69
2022/07/20 17:17:58;;;;;;;;;;;;;;;26.14;42.15;95601.84;10503988;28;2119;-69
2022/07/20 17:22:59;;;;;;;;;;;;;;;26.15;42.05;95598.88;10516951;28;2023;-70
2022/07/20 17:27:59;;;;;;;;;;;;;;;26.16;42.05;95591.69;10517276;28;2098;-69
2022/07/20 17:33:00;;;;;;;;;;;;;;;26.15;42.07;95585.59;10523579;28;1980;-69
2022/07/20 17:38:01;;;;;;;;;;;;;;;26.17;42.19;95574.66;10523891;28;1904;-68
2022/07/20 17:43:01;;;;;;;;;;;;;;;26.17;42.25;95574.66;10528460;28;1976;-69
2022/07/20 17:48:01;;;;;;;;;;;;;;;26.17;42.16;95564.03;10513376;28;1987;-68
2022/07/20 17:53:01;;;;;;;;;;;;;;;26.18;42.22;95544.34;10526146;28;1958;-69
2022/07/20 17:58:04;;;;;;;;;;;;;;;26.17;42.26;95537.47;10555874;28;2124;-68
2022/07/20 18:03:06;;;;;;;;;;;;;;;26.18;42.12;95517.78;10553953;28;1839;-68
2022/07/20 18:08:08;;;;;;;;;;;;;;;26.19;42.30;95524.66;10521007;28;1845;-70
2022/07/20 18:13:08;;;;;;;;;;;;;;;26.18;42.35;95528.41;10527027;28;1906;-69
2022/07/20 18:18:08;;;;;;;;;;;;;;;26.20;42.32;95547.47;10528328;28;1938;-70
2022/07/20 18:23:09;;;;;;;;;;;;;;;26.19;42.33;95567.97;10510497;28;1798;-68
2022/07/20 18:28:11;;;;;;;;;;;;;;;26.21;42.92;95583.56;10529079;28;1914;-69
2022/07/20 18:33:14;;;;;;;;;;;;;;;26.23;42.86;95592.00;10505994;28;1945;-67
2022/07/20 18:38:15;;;;;;;;;;;;;;;26.25;43.07;95597.81;10507329;28;1894;-68
2022/07/20 18:43:16;;;;;;;;;;;;;;;26.25;43.30;95579.19;10523135;28;1840;-68
2022/07/20 18:48:16;;;;;;;;;;;;;;;26.26;43.55;95573.56;10522004;28;1872;-69
2022/07/20 18:53:16;;;;;;;;;;;;;;;26.27;43.29;95587.63;10515120;28;1898;-69
2022/07/20 18:58:17;;;;;;;;;;;;;;;26.26;43.58;95605.44;10519873;28;1880;-69
2022/07/20 19:03:17;;;;;;;;;;;;;;;26.28;43.62;95602.47;10519097;28;1844;-69
2022/07/20 19:08:18;;;;;;;;;;;;;;;26.29;43.46;95609.38;10515498;28;1825;-68
2022/07/20 19:13:18;;;;;;;;;;;;;;;26.28;43.43;95635.16;10508526;28;1906;-69
2022/07/20 19:18:18;;;;;;;;;;;;;;;26.29;43.30;95630.63;10486288;28;1820;-68
2022/07/20 19:23:19;;;;;;;;;;;;;;;26.30;43.49;95653.44;10525754;28;1877;-68
2022/07/20 19:28:19;;;;;;;;;;;;;;;26.29;43.30;95652.66;10518151;28;1901;-69
2022/07/20 19:33:21;;;;;;;;;;;;;;;26.30;43.45;95664.06;10520281;28;1906;-68
2022/07/20 19:38:21;;;;;;;;;;;;;;;26.30;43.30;95687.97;10516173;28;1858;-69
2022/07/20 19:43:21;;;;;;;;;;;;;;;26.29;43.36;95695.19;10517747;28;1842;-68
2022/07/20 19:48:22;;;;;;;;;;;;;;;26.29;43.22;95705.81;10514813;28;1887;-68
2022/07/20 19:53:22;;;;;;;;;;;;;;;26.29;43.23;95721.75;10512944;28;1981;-68
2022/07/20 19:58:24;;;;;;;;;;;;;;;26.29;43.22;95727.06;10498743;28;1774;-69
2022/07/20 20:03:25;;;;;;;;;;;;;;;26.30;43.02;95733.16;10512520;28;1860;-69
2022/07/20 20:08:26;;;;;;;;;;;;;;;26.30;43.03;95746.44;10516310;28;1841;-67
2022/07/20 20:13:26;;;;;;;;;;;;;;;26.30;43.14;95736.59;10515298;28;1929;-68
2022/07/20 20:18:26;;;;;;;;;;;;;;;26.30;43.29;95743.78;10507920;28;1830;-68
2022/07/20 20:23:26;;;;;;;;;;;;;;;26.30;43.09;95743.78;10500701;28;1861;-69
2022/07/20 20:28:27;;;;;;;;;;;;;;;26.30;43.02;95757.06;10497542;28;1856;-69
2022/07/20 20:33:27;;;;;;;;;;;;;;;26.32;43.35;95781.47;10497277;28;1906;-69
2022/07/20 20:38:28;;;;;;;;;;;;;;;26.31;43.13;95787.88;10517043;28;1940;-68
2022/07/20 20:43:29;;;;;;;;;;;;;;;26.29;43.35;95782.09;10511474;28;1905;-69
2022/07/20 20:48:30;;;;;;;;;;;;;;;26.32;43.60;95792.09;10506453;28;1896;-68
2022/07/20 20:53:31;;;;;;;;;;;;;;;26.32;43.74;95805.38;10511385;28;1977;-67
2022/07/20 20:58:31;;;;;;;;;;;;;;;26.32;43.80;95835.41;10508998;28;1784;-68
2022/07/20 21:03:32;;;;;;;;;;;;;;;26.35;43.40;95852.63;10517543;28;1865;-68
2022/07/20 21:08:32;;;;;;;;;;;;;;;26.36;43.45;95864.78;10518562;28;2329;-68
2022/07/20 21:13:33;;;;;;;;;;;;;;;26.38;43.44;95873.25;10519297;28;1913;-68
2022/07/20 21:18:34;;;;;;;;;;;;;;;26.37;43.55;95875.13;10518088;28;1831;-69
2022/07/20 21:23:35;;;;;;;;;;;;;;;26.38;43.38;95883.88;10515021;28;1779;-68
2022/07/20 21:28:35;;;;;;;;;;;;;;;26.35;43.49;95900.44;10520864;28;2262;-69
2022/07/20 21:33:36;;;;;;;;;;;;;;;26.36;43.44;95917.94;10521890;28;1910;-69
2022/07/20 21:38:36;;;;;;;;;;;;;;;26.36;43.55;95940.00;10502178;28;2162;-69
2022/07/20 21:43:37;;;;;;;;;;;;;;;26.33;43.35;95961.09;10520354;28;1881;-68
2022/07/20 21:48:37;;;;;;;;;;;;;;;26.34;43.04;95974.06;10518962;28;1797;-68
2022/07/20 21:53:37;;;;;;;;;;;;;;;26.34;43.38;95987.38;10520386;28;1965;-66
2022/07/20 21:58:38;;;;;;;;;;;;;;;26.34;43.27;95995.34;10519340;28;1979;-67
2022/07/20 22:03:39;;;;;;;;;;;;;;;26.36;42.92;95989.72;10514616;28;1859;-67
2022/07/20 22:08:39;;;;;;;;;;;;;;;26.35;43.19;95986.28;10517626;28;1882;-67
2022/07/20 22:13:39;;;;;;;;;;;;;;;26.32;43.00;96004.69;10495251;28;1956;-67
2022/07/20 22:18:40;;;;;;;;;;;;;;;26.02;42.78;96021.34;10529509;28;1788;-68
2022/07/20 22:23:40;;;;;;;;;;;;;;;25.90;42.73;96042.34;10524195;28;1849;-67
2022/07/20 22:28:41;;;;;;;;;;;;;;;25.76;42.76;96063.66;10539826;28;1764;-67
2022/07/20 22:33:41;;;;;;;;;;;;;;;25.66;42.56;96063.84;10554759;28;1886;-68
2022/07/20 22:38:43;;;;;;;;;;;;;;;25.59;42.46;96077.56;10546437;28;1860;-68
2022/07/20 22:43:43;;;;;;;;;;;;;;;25.59;42.50;96069.59;10541483;28;2065;-68
2022/07/20 22:48:44;;;;;;;;;;;;;;;25.68;42.52;96065.13;10527130;28;1830;-68
2022/07/20 22:53:45;;;;;;;;;;;;;;;25.66;42.48;96053.22;10528020;28;1969;-68
2022/07/20 22:58:45;;;;;;;;;;;;;;;25.58;42.80;96041.47;10524344;28;1819;-68
2022/07/20 23:03:46;;;;;;;;;;;;;;;25.56;42.79;96025.03;10527971;28;2001;-69
2022/07/20 23:08:46;;;;;;;;;;;;;;;25.67;42.93;96018.44;10516083;28;1823;-68
2022/07/20 23:13:47;;;;;;;;;;;;;;;25.68;42.52;96020.00;10518533;28;1909;-68
2022/07/20 23:18:48;;;;;;;;;;;;;;;25.66;42.71;96026.69;10521232;28;1881;-67
2022/07/20 23:23:48;;;;;;;;;;;;;;;25.63;43.10;96025.44;10521512;28;1922;-68
2022/07/20 23:28:48;;;;;;;;;;;;;;;25.48;44.46;96032.91;10506438;28;1899;-68
2022/07/20 23:33:49;;;;;;;;;;;;;;;25.52;44.95;95968.31;10521346;28;1922;-68
2022/07/20 23:38:50;;;;;;;;;;;;;;;25.62;46.37;95993.84;10520723;28;1840;-68
2022/07/20 23:43:50;;;;;;;;;;;;;;;25.66;46.12;95979.69;10521209;28;1839;-67
2022/07/20 23:48:50;;;;;;;;;;;;;;;25.78;45.64;95969.31;10526587;28;1775;-68
2022/07/20 23:53:50;;;;;;;;;;;;;;;25.88;45.74;95986.09;10520201;28;1913;-67
2022/07/20 23:58:51;;;;;;;;;;;;;;;25.94;45.75;95990.22;10523023;28;1835;-67
